createdAt,value
2023-02-27T00:00:30.104Z,26.45
2023-02-27T00:01:30.110Z,26.44
2023-02-27T00:02:30.116Z,26.47
2023-02-27T00:03:30.147Z,26.47
2023-02-27T00:04:30.099Z,26.43
2023-02-27T00:05:30.106Z,26.40
2023-02-27T00:06:30.097Z,26.43
2023-02-27T00:07:30.110Z,26.45
2023-02-27T00:08:30.173Z,26.47
2023-02-27T00:09:30.118Z,26.48
2023-02-27T00:10:30.095Z,26.44
2023-02-27T00:11:30.398Z,26.47
2023-02-27T00:12:30.093Z,26.45
2023-02-27T00:13:30.099Z,26.39
2023-02-27T00:14:30.116Z,26.45
2023-02-27T00:15:30.096Z,26.45
2023-02-27T00:16:30.190Z,26.44
2023-02-27T00:17:30.098Z,26.45
2023-02-27T00:18:30.090Z,26.43
2023-02-27T00:19:30.092Z,26.43
2023-02-27T00:20:30.086Z,26.44
2023-02-27T00:21:30.094Z,26.47
2023-02-27T00:22:30.088Z,26.44
2023-02-27T00:23:30.102Z,26.43
2023-02-27T00:24:30.082Z,26.48
2023-02-27T00:25:30.107Z,26.47
2023-02-27T00:26:30.080Z,26.47
2023-02-27T00:27:30.088Z,26.40
2023-02-27T00:28:30.077Z,26.44
2023-02-27T00:29:30.087Z,26.45
2023-02-27T00:30:30.151Z,26.39
2023-02-27T00:31:30.529Z,26.47
2023-02-27T00:32:30.124Z,26.45
2023-02-27T00:33:30.081Z,26.45
2023-02-27T00:34:30.075Z,26.44
2023-02-27T00:35:30.081Z,26.45
2023-02-27T00:36:30.072Z,26.43
2023-02-27T00:37:30.087Z,26.47
2023-02-27T00:38:30.090Z,26.47
2023-02-27T00:39:30.077Z,26.44
2023-02-27T00:40:30.068Z,26.45
2023-02-27T00:41:30.081Z,26.39
2023-02-27T00:42:30.071Z,26.45
2023-02-27T00:43:30.073Z,26.47
2023-02-27T00:44:30.065Z,26.43
2023-02-27T00:45:30.071Z,26.45
2023-02-27T00:46:30.166Z,26.43
2023-02-27T00:47:30.075Z,26.43
2023-02-27T00:48:30.125Z,26.35
2023-02-27T00:49:30.060Z,26.45
2023-02-27T00:50:30.073Z,26.45
2023-02-27T00:51:30.057Z,26.44
2023-02-27T00:52:30.065Z,26.44
2023-02-27T00:53:30.056Z,26.39
2023-02-27T00:54:30.064Z,26.45
2023-02-27T00:55:30.072Z,26.44
2023-02-27T00:56:30.059Z,26.44
2023-02-27T00:57:30.094Z,26.43
2023-02-27T00:58:30.058Z,26.45
2023-02-27T00:59:30.051Z,26.45
2023-02-27T01:00:30.189Z,26.45
2023-02-27T01:01:30.049Z,26.47
2023-02-27T01:02:30.132Z,26.44
2023-02-27T01:03:30.062Z,26.40
2023-02-27T01:04:30.062Z,26.40
2023-02-27T01:05:30.049Z,26.44
2023-02-27T01:06:30.055Z,26.45
2023-02-27T01:07:30.049Z,26.44
2023-02-27T01:08:30.056Z,26.44
2023-02-27T01:09:30.049Z,26.47
2023-02-27T01:10:30.056Z,26.43
2023-02-27T01:11:30.051Z,26.44
2023-02-27T01:12:30.084Z,26.39
2023-02-27T01:13:30.046Z,26.44
2023-02-27T01:14:30.057Z,26.43
2023-02-27T01:15:30.057Z,26.45
2023-02-27T01:16:30.076Z,26.43
2023-02-27T01:17:30.046Z,26.39
2023-02-27T01:18:30.108Z,26.39
2023-02-27T01:19:30.056Z,26.39
2023-02-27T01:20:30.052Z,26.44
2023-02-27T01:21:30.041Z,26.47
2023-02-27T01:22:30.051Z,26.44
2023-02-27T01:23:30.043Z,26.45
2023-02-27T01:24:30.058Z,26.45
2023-02-27T01:25:30.040Z,26.47
2023-02-27T01:26:30.047Z,26.47
2023-02-27T01:27:30.037Z,26.44
2023-02-27T01:28:30.047Z,26.39
2023-02-27T01:29:30.037Z,26.44
2023-02-27T01:30:30.102Z,26.44
2023-02-27T01:31:30.225Z,26.45
2023-02-27T01:32:30.082Z,26.44
2023-02-27T01:33:30.037Z,26.51
2023-02-27T01:34:30.064Z,26.43
2023-02-27T01:35:30.034Z,26.45
2023-02-27T01:36:30.039Z,26.44
2023-02-27T01:37:30.033Z,26.44
2023-02-27T01:38:30.044Z,26.44
2023-02-27T01:39:30.028Z,26.47
2023-02-27T01:40:30.034Z,26.44
2023-02-27T01:41:30.033Z,26.44
2023-02-27T01:42:30.050Z,26.45
2023-02-27T01:43:30.025Z,26.43
2023-02-27T01:44:30.034Z,26.45
2023-02-27T01:45:30.103Z,26.48
2023-02-27T01:46:30.028Z,26.44
2023-02-27T01:47:30.026Z,26.44
2023-02-27T01:48:30.030Z,26.48
2023-02-27T01:49:30.021Z,26.47
2023-02-27T01:50:30.046Z,26.39
2023-02-27T01:51:30.020Z,26.47
2023-02-27T01:52:30.024Z,26.45
2023-02-27T01:53:30.016Z,26.44
2023-02-27T01:54:30.024Z,26.40
2023-02-27T01:55:30.014Z,26.44
2023-02-27T01:56:30.031Z,26.44
2023-02-27T01:57:30.026Z,26.45
2023-02-27T01:58:30.021Z,26.45
2023-02-27T01:59:30.013Z,26.45
2023-02-27T02:00:30.019Z,26.45
2023-02-27T02:01:30.205Z,26.43
2023-02-27T02:02:30.088Z,26.45
2023-02-27T02:03:30.009Z,26.44
2023-02-27T02:04:30.016Z,26.45
2023-02-27T02:05:30.010Z,26.47
2023-02-27T02:06:30.037Z,26.44
2023-02-27T02:07:30.011Z,26.39
2023-02-27T02:08:30.013Z,26.43
2023-02-27T02:09:30.010Z,26.44
2023-02-27T02:10:30.010Z,26.44
2023-02-27T02:11:30.004Z,26.47
2023-02-27T02:12:30.013Z,26.45
2023-02-27T02:13:30.000Z,26.45
2023-02-27T02:14:30.013Z,26.47
2023-02-27T02:15:29.998Z,26.39
2023-02-27T02:16:30.034Z,26.44
2023-02-27T02:17:30.006Z,26.47
2023-02-27T02:18:30.013Z,26.43
2023-02-27T02:19:29.995Z,26.47
2023-02-27T02:20:30.005Z,26.44
2023-02-27T02:21:29.996Z,26.33
2023-02-27T02:22:30.024Z,26.44
2023-02-27T02:23:29.993Z,26.45
2023-02-27T02:24:30.001Z,26.44
2023-02-27T02:25:29.990Z,26.47
2023-02-27T02:26:33.163Z,26.43
2023-02-27T02:27:29.992Z,26.47
2023-02-27T02:28:29.997Z,26.39
2023-02-27T02:29:30.002Z,26.45
2023-02-27T02:30:30.061Z,26.39
2023-02-27T02:31:30.540Z,26.39
2023-02-27T02:32:30.074Z,26.39
2023-02-27T02:33:29.988Z,26.43
2023-02-27T02:34:29.994Z,26.48
2023-02-27T02:35:29.992Z,26.39
2023-02-27T02:36:29.991Z,26.39
2023-02-27T02:37:29.981Z,26.47
2023-02-27T02:38:30.018Z,26.43
2023-02-27T02:39:29.982Z,26.44
2023-02-27T02:40:29.989Z,26.45
2023-02-27T02:41:29.980Z,26.47
2023-02-27T02:42:29.990Z,26.39
2023-02-27T02:43:29.981Z,26.44
2023-02-27T02:44:29.985Z,26.43
2023-02-27T02:45:29.978Z,26.44
2023-02-27T02:46:29.983Z,26.44
2023-02-27T02:47:29.982Z,26.43
2023-02-27T02:48:30.003Z,26.44
2023-02-27T02:49:29.976Z,26.44
2023-02-27T02:50:29.980Z,26.45
2023-02-27T02:51:29.972Z,26.44
2023-02-27T02:52:29.979Z,26.39
2023-02-27T02:53:36.636Z,26.44
2023-02-27T02:54:29.998Z,26.45
2023-02-27T02:55:29.970Z,26.44
2023-02-27T02:56:29.985Z,26.43
2023-02-27T02:57:29.972Z,26.40
2023-02-27T02:58:29.973Z,26.39
2023-02-27T02:59:29.967Z,26.48
2023-02-27T03:00:29.973Z,26.44
2023-02-27T03:01:30.290Z,26.45
2023-02-27T03:02:29.971Z,26.47
2023-02-27T03:03:29.965Z,26.43
2023-02-27T03:04:29.997Z,26.44
2023-02-27T03:05:29.964Z,26.39
2023-02-27T03:06:29.968Z,26.47
2023-02-27T03:07:30.026Z,26.47
2023-02-27T03:08:29.967Z,26.39
2023-02-27T03:09:29.958Z,26.44
2023-02-27T03:10:29.989Z,26.39
2023-02-27T03:11:29.955Z,26.48
2023-02-27T03:12:29.966Z,26.43
2023-02-27T03:13:29.957Z,26.39
2023-02-27T03:14:29.962Z,26.39
2023-02-27T03:15:29.985Z,26.47
2023-02-27T03:16:29.961Z,26.39
2023-02-27T03:17:29.952Z,26.44
2023-02-27T03:18:29.957Z,26.47
2023-02-27T03:19:29.951Z,26.43
2023-02-27T03:20:29.959Z,26.45
2023-02-27T03:21:29.949Z,26.48
2023-02-27T03:22:29.976Z,26.48
2023-02-27T03:23:29.944Z,26.45
2023-02-27T03:24:29.955Z,26.39
2023-02-27T03:25:29.942Z,26.39
2023-02-27T03:26:30.024Z,26.47
2023-02-27T03:27:29.940Z,26.44
2023-02-27T03:28:29.950Z,26.44
2023-02-27T03:29:29.961Z,26.47
2023-02-27T03:30:30.014Z,26.47
2023-02-27T03:31:30.427Z,26.39
2023-02-27T03:32:30.010Z,26.39
2023-02-27T03:33:29.937Z,26.47
2023-02-27T03:34:29.941Z,26.37
2023-02-27T03:35:29.935Z,26.45
2023-02-27T03:36:29.947Z,26.47
2023-02-27T03:37:29.941Z,26.44
2023-02-27T03:38:29.938Z,26.47
2023-02-27T03:39:29.930Z,26.43
2023-02-27T03:40:29.938Z,26.45
2023-02-27T03:41:29.930Z,26.48
2023-02-27T03:42:29.959Z,26.47
2023-02-27T03:43:29.928Z,26.48
2023-02-27T03:44:29.934Z,26.45
2023-02-27T03:45:29.925Z,26.44
2023-02-27T03:46:29.975Z,26.39
2023-02-27T03:47:29.924Z,26.45
2023-02-27T03:48:30.030Z,26.45
2023-02-27T03:49:29.934Z,26.45
2023-02-27T03:50:29.928Z,26.47
2023-02-27T03:51:30.053Z,26.39
2023-02-27T03:52:29.952Z,26.39
2023-02-27T03:53:29.924Z,26.47
2023-02-27T03:54:29.942Z,26.37
2023-02-27T03:55:29.917Z,26.35
2023-02-27T03:56:29.928Z,26.47
2023-02-27T03:57:29.916Z,26.43
2023-02-27T03:58:29.946Z,26.39
2023-02-27T03:59:29.914Z,26.39
2023-02-27T04:00:29.920Z,26.43
2023-02-27T04:01:30.142Z,26.44
2023-02-27T04:02:29.966Z,26.45
2023-02-27T04:03:29.914Z,26.44
2023-02-27T04:04:29.918Z,26.39
2023-02-27T04:05:29.914Z,26.43
2023-02-27T04:06:29.915Z,26.45
2023-02-27T04:07:29.909Z,26.48
2023-02-27T04:08:29.918Z,26.40
2023-02-27T04:09:29.909Z,26.37
2023-02-27T04:10:29.913Z,26.36
2023-02-27T04:11:29.983Z,26.39
2023-02-27T04:12:29.912Z,26.45
2023-02-27T04:13:29.909Z,26.40
2023-02-27T04:14:29.934Z,26.45
2023-02-27T04:15:29.911Z,26.39
2023-02-27T04:16:29.909Z,26.44
2023-02-27T04:17:29.900Z,26.39
2023-02-27T04:18:29.906Z,26.36
2023-02-27T04:19:29.901Z,26.39
2023-02-27T04:20:29.906Z,26.44
2023-02-27T04:21:29.895Z,26.43
2023-02-27T04:22:29.904Z,26.45
2023-02-27T04:23:29.895Z,26.37
2023-02-27T04:24:29.903Z,26.40
2023-02-27T04:25:29.896Z,26.43
2023-02-27T04:26:29.900Z,26.39
2023-02-27T04:27:29.897Z,26.37
2023-02-27T04:28:29.900Z,26.44
2023-02-27T04:29:29.894Z,26.37
2023-02-27T04:30:29.924Z,26.39
2023-02-27T04:31:30.270Z,26.36
2023-02-27T04:32:30.085Z,26.45
2023-02-27T04:33:29.895Z,26.43
2023-02-27T04:34:29.898Z,26.40
2023-02-27T04:35:29.891Z,26.47
2023-02-27T04:36:29.899Z,26.43
2023-02-27T04:37:29.889Z,26.40
2023-02-27T04:38:29.903Z,26.44
2023-02-27T04:39:29.888Z,26.39
2023-02-27T04:40:29.896Z,26.43
2023-02-27T04:41:29.943Z,26.43
2023-02-27T04:42:29.895Z,26.48
2023-02-27T04:43:29.889Z,26.43
2023-02-27T04:44:29.898Z,26.45
2023-02-27T04:45:29.921Z,26.44
2023-02-27T04:46:29.922Z,26.37
2023-02-27T04:47:29.901Z,26.39
2023-02-27T04:48:29.892Z,26.43
2023-02-27T04:49:29.887Z,26.44
2023-02-27T04:50:29.892Z,26.39
2023-02-27T04:51:29.883Z,26.36
2023-02-27T04:52:29.889Z,26.43
2023-02-27T04:53:29.887Z,26.45
2023-02-27T04:54:29.886Z,26.45
2023-02-27T04:55:29.881Z,26.43
2023-02-27T04:56:29.890Z,26.39
2023-02-27T04:57:29.879Z,26.36
2023-02-27T04:58:29.884Z,26.44
2023-02-27T04:59:29.877Z,26.39
2023-02-27T05:00:29.884Z,26.40
2023-02-27T05:01:30.320Z,26.37
2023-02-27T05:02:30.075Z,26.43
2023-02-27T05:03:29.873Z,26.39
2023-02-27T05:04:29.889Z,26.36
2023-02-27T05:05:29.881Z,26.40
2023-02-27T05:06:29.874Z,26.44
2023-02-27T05:07:29.879Z,26.36
2023-02-27T05:08:29.870Z,26.36
2023-02-27T05:09:29.875Z,26.39
2023-02-27T05:10:29.865Z,26.43
2023-02-27T05:11:29.996Z,26.43
2023-02-27T05:12:29.865Z,26.37
2023-02-27T05:13:29.873Z,26.39
2023-02-27T05:14:29.862Z,26.44
2023-02-27T05:15:29.914Z,26.47
2023-02-27T05:16:29.938Z,26.45
2023-02-27T05:17:29.869Z,26.43
2023-02-27T05:18:29.920Z,26.47
2023-02-27T05:19:29.868Z,26.47
2023-02-27T05:20:29.951Z,26.44
2023-02-27T05:21:30.071Z,26.47
2023-02-27T05:22:29.857Z,26.48
2023-02-27T05:23:29.870Z,26.47
2023-02-27T05:24:29.855Z,26.39
2023-02-27T05:25:29.862Z,26.45
2023-02-27T05:26:29.859Z,26.47
2023-02-27T05:27:29.860Z,26.47
2023-02-27T05:28:29.866Z,26.44
2023-02-27T05:29:29.859Z,26.47
2023-02-27T05:30:29.849Z,26.45
2023-02-27T05:31:30.161Z,26.47
2023-02-27T05:32:29.967Z,26.50
2023-02-27T05:33:29.854Z,26.47
2023-02-27T05:34:29.871Z,26.47
2023-02-27T05:35:29.986Z,26.50
2023-02-27T05:36:29.845Z,26.51
2023-02-27T05:37:29.851Z,26.48
2023-02-27T05:38:29.887Z,26.44
2023-02-27T05:39:29.848Z,26.50
2023-02-27T05:40:29.841Z,26.44
2023-02-27T05:41:29.866Z,26.47
2023-02-27T05:42:29.841Z,26.51
2023-02-27T05:43:29.840Z,26.40
2023-02-27T05:44:29.834Z,26.43
2023-02-27T05:45:29.843Z,26.47
2023-02-27T05:46:29.831Z,26.44
2023-02-27T05:47:29.844Z,26.45
2023-02-27T05:48:29.983Z,26.39
2023-02-27T05:49:29.837Z,26.55
2023-02-27T05:50:29.855Z,26.50
2023-02-27T05:51:29.935Z,26.50
2023-02-27T05:52:29.828Z,26.44
2023-02-27T05:53:29.833Z,26.44
2023-02-27T05:54:29.828Z,26.51
2023-02-27T05:55:29.836Z,26.51
2023-02-27T05:56:30.091Z,26.45
2023-02-27T05:57:29.835Z,26.43
2023-02-27T05:58:29.833Z,26.44
2023-02-27T05:59:29.831Z,26.47
2023-02-27T06:00:29.824Z,26.43
2023-02-27T06:01:29.832Z,26.44
2023-02-27T06:02:29.861Z,26.47
2023-02-27T06:03:29.879Z,26.47
2023-02-27T06:04:29.821Z,26.48
2023-02-27T06:05:29.828Z,26.43
2023-02-27T06:06:29.942Z,26.39
2023-02-27T06:07:29.828Z,26.45
2023-02-27T06:08:29.819Z,26.43
2023-02-27T06:09:29.825Z,26.45
2023-02-27T06:10:29.817Z,26.40
2023-02-27T06:11:29.823Z,26.45
2023-02-27T06:12:29.817Z,26.36
2023-02-27T06:13:29.826Z,26.43
2023-02-27T06:14:29.814Z,26.39
2023-02-27T06:15:29.826Z,26.47
2023-02-27T06:16:30.197Z,26.47
2023-02-27T06:17:29.821Z,26.43
2023-02-27T06:18:29.814Z,26.47
2023-02-27T06:19:29.831Z,26.50
2023-02-27T06:20:29.811Z,26.50
2023-02-27T06:21:29.819Z,26.45
2023-02-27T06:22:29.835Z,26.48
2023-02-27T06:23:29.816Z,26.47
2023-02-27T06:24:29.808Z,26.47
2023-02-27T06:25:29.821Z,26.50
2023-02-27T06:26:30.028Z,26.51
2023-02-27T06:27:29.817Z,26.50
2023-02-27T06:28:29.809Z,26.50
2023-02-27T06:29:29.811Z,26.48
2023-02-27T06:30:29.861Z,26.51
2023-02-27T06:31:29.821Z,26.60
2023-02-27T06:32:29.798Z,26.55
2023-02-27T06:33:29.806Z,26.54
2023-02-27T06:34:29.797Z,26.66
2023-02-27T06:35:29.806Z,26.58
2023-02-27T06:36:30.210Z,26.57
2023-02-27T06:37:29.800Z,26.60
2023-02-27T06:38:29.816Z,26.60
2023-02-27T06:39:29.804Z,26.65
2023-02-27T06:40:29.795Z,26.63
2023-02-27T06:41:29.800Z,26.63
2023-02-27T06:42:29.788Z,26.62
2023-02-27T06:43:29.795Z,26.66
2023-02-27T06:44:29.806Z,26.58
2023-02-27T06:45:29.795Z,26.63
2023-02-27T06:46:30.016Z,26.70
2023-02-27T06:47:29.794Z,26.70
2023-02-27T06:48:29.798Z,26.66
2023-02-27T06:49:29.793Z,26.75
2023-02-27T06:50:29.788Z,26.81
2023-02-27T06:51:29.816Z,26.82
2023-02-27T06:52:29.783Z,26.72
2023-02-27T06:53:29.790Z,26.73
2023-02-27T06:54:29.807Z,26.75
2023-02-27T06:55:29.787Z,26.69
2023-02-27T06:56:29.857Z,26.73
2023-02-27T06:57:29.793Z,26.76
2023-02-27T06:58:29.777Z,26.73
2023-02-27T06:59:29.784Z,26.80
2023-02-27T07:00:29.815Z,26.80
2023-02-27T07:01:29.893Z,26.76
2023-02-27T07:02:29.773Z,26.76
2023-02-27T07:03:29.783Z,26.82
2023-02-27T07:04:29.821Z,26.85
2023-02-27T07:05:29.781Z,26.87
2023-02-27T07:07:34.017Z,26.84
2023-02-27T07:07:34.674Z,26.87
2023-02-27T07:08:29.774Z,26.82
2023-02-27T07:09:29.788Z,26.92
2023-02-27T07:10:29.862Z,26.88
2023-02-27T07:11:29.780Z,26.94
2023-02-27T07:12:29.777Z,26.88
2023-02-27T07:13:29.782Z,26.91
2023-02-27T07:14:29.771Z,26.85
2023-02-27T07:15:29.802Z,26.88
2023-02-27T07:16:29.941Z,26.92
2023-02-27T07:17:29.778Z,26.94
2023-02-27T07:18:29.770Z,26.89
2023-02-27T07:19:29.777Z,26.89
2023-02-27T07:20:29.771Z,26.91
2023-02-27T07:21:29.777Z,26.95
2023-02-27T07:22:29.783Z,26.92
2023-02-27T07:23:29.777Z,26.92
2023-02-27T07:24:29.784Z,27.00
2023-02-27T07:25:29.771Z,27.04
2023-02-27T07:26:30.036Z,27.09
2023-02-27T07:27:29.776Z,26.99
2023-02-27T07:28:29.862Z,26.99
2023-02-27T07:29:29.771Z,27.12
2023-02-27T07:30:29.764Z,27.04
2023-02-27T07:31:29.847Z,27.10
2023-02-27T07:32:29.768Z,27.10
2023-02-27T07:33:29.785Z,27.13
2023-02-27T07:34:29.769Z,27.06
2023-02-27T07:35:29.820Z,27.14
2023-02-27T07:36:29.781Z,27.10
2023-02-27T07:37:29.774Z,27.06
2023-02-27T07:38:29.766Z,27.09
2023-02-27T07:39:29.771Z,27.21
2023-02-27T07:40:29.772Z,27.13
2023-02-27T07:41:31.152Z,27.13
2023-02-27T07:42:29.785Z,27.14
2023-02-27T07:43:29.771Z,27.13
2023-02-27T07:44:29.765Z,27.21
2023-02-27T07:45:29.772Z,27.24
2023-02-27T07:46:30.190Z,27.14
2023-02-27T07:47:29.769Z,27.22
2023-02-27T07:48:29.766Z,27.22
2023-02-27T07:49:29.771Z,27.21
2023-02-27T07:50:29.763Z,27.22
2023-02-27T07:51:29.779Z,27.18
2023-02-27T07:53:29.770Z,27.22
2023-02-27T07:54:29.807Z,27.21
2023-02-27T07:55:29.769Z,27.18
2023-02-27T07:56:30.026Z,27.25
2023-02-27T07:57:29.775Z,27.22
2023-02-27T07:58:29.799Z,27.22
2023-02-27T07:59:29.776Z,27.29
2023-02-27T08:00:29.763Z,27.24
2023-02-27T08:01:29.769Z,27.18
2023-02-27T08:02:29.808Z,27.27
2023-02-27T08:03:29.767Z,27.28
2023-02-27T08:04:29.799Z,27.28
2023-02-27T08:05:29.772Z,27.19
2023-02-27T08:06:30.236Z,27.27
2023-02-27T08:07:29.766Z,27.31
2023-02-27T08:08:29.867Z,27.29
2023-02-27T08:09:29.765Z,27.25
2023-02-27T08:10:29.768Z,27.19
2023-02-27T08:11:30.043Z,27.18
2023-02-27T08:12:29.770Z,27.29
2023-02-27T08:13:58.983Z,27.28
2023-02-27T08:14:29.779Z,27.21
2023-02-27T08:15:29.769Z,27.24
2023-02-27T08:16:30.156Z,27.25
2023-02-27T08:17:29.767Z,27.22
2023-02-27T08:18:29.758Z,27.28
2023-02-27T08:19:29.768Z,27.25
2023-02-27T08:20:29.772Z,27.31
2023-02-27T08:21:30.188Z,27.24
2023-02-27T08:22:29.762Z,27.32
2023-02-27T08:23:29.765Z,27.27
2023-02-27T08:24:29.780Z,27.24
2023-02-27T08:25:29.765Z,27.27
2023-02-27T08:26:30.244Z,27.36
2023-02-27T08:27:29.764Z,27.34
2023-02-27T08:28:29.758Z,27.24
2023-02-27T08:29:29.767Z,27.31
2023-02-27T08:30:29.775Z,27.32
2023-02-27T08:31:29.803Z,27.28
2023-02-27T08:32:29.792Z,27.36
2023-02-27T08:33:29.760Z,27.32
2023-02-27T08:34:29.757Z,27.37
2023-02-27T08:35:29.758Z,27.34
2023-02-27T08:36:29.939Z,27.29
2023-02-27T08:37:29.758Z,27.32
2023-02-27T08:38:29.853Z,27.31
2023-02-27T08:39:29.761Z,27.27
2023-02-27T08:40:29.753Z,27.32
2023-02-27T08:41:29.775Z,27.36
2023-02-27T08:42:29.749Z,27.32
2023-02-27T08:43:29.756Z,27.32
2023-02-27T08:44:29.747Z,27.32
2023-02-27T08:45:29.800Z,27.32
2023-02-27T08:46:30.146Z,27.25
2023-02-27T08:47:29.753Z,27.19
2023-02-27T08:48:29.748Z,27.21
2023-02-27T08:49:29.758Z,27.21
2023-02-27T08:50:29.746Z,27.18
2023-02-27T08:51:30.086Z,27.21
2023-02-27T08:52:29.746Z,27.17
2023-02-27T08:53:29.753Z,27.24
2023-02-27T08:54:29.750Z,27.17
2023-02-27T08:55:29.751Z,27.21
2023-02-27T08:56:29.947Z,27.13
2023-02-27T08:57:29.753Z,27.13
2023-02-27T08:58:29.742Z,27.13
2023-02-27T08:59:29.748Z,27.10
2023-02-27T09:00:29.756Z,27.07
2023-02-27T09:01:30.281Z,27.17
2023-02-27T09:02:29.799Z,27.10
2023-02-27T09:03:29.753Z,27.13
2023-02-27T09:04:29.752Z,27.12
2023-02-27T09:05:29.750Z,27.10
2023-02-27T09:06:30.163Z,27.09
2023-02-27T09:07:29.749Z,27.09
2023-02-27T09:08:29.986Z,27.10
2023-02-27T09:09:29.750Z,27.04
2023-02-27T09:10:29.742Z,27.02
2023-02-27T09:11:30.334Z,27.09
2023-02-27T09:12:29.742Z,26.99
2023-02-27T09:13:29.751Z,27.06
2023-02-27T09:14:29.740Z,27.03
2023-02-27T09:15:29.746Z,26.97
2023-02-27T09:16:30.236Z,27.02
2023-02-27T09:17:29.746Z,26.99
2023-02-27T09:18:29.763Z,26.97
2023-02-27T09:19:29.813Z,26.95
2023-02-27T09:20:29.747Z,26.92
2023-02-27T09:21:29.747Z,26.97
2023-02-27T09:22:29.746Z,26.89
2023-02-27T09:23:29.735Z,26.95
2023-02-27T09:24:29.744Z,26.92
2023-02-27T09:25:29.738Z,26.92
2023-02-27T09:26:43.427Z,26.94
2023-02-27T09:27:29.733Z,26.89
2023-02-27T09:28:29.740Z,26.89
2023-02-27T09:29:29.745Z,26.89
2023-02-27T09:30:29.740Z,26.94
2023-02-27T09:31:32.805Z,26.94
2023-02-27T09:32:29.883Z,26.94
2023-02-27T09:33:29.735Z,26.92
2023-02-27T09:34:29.784Z,26.97
2023-02-27T09:35:29.823Z,27.04
2023-02-27T09:36:30.059Z,26.89
2023-02-27T09:37:29.731Z,27.00
2023-02-27T09:38:29.741Z,26.92
2023-02-27T09:39:29.728Z,26.89
2023-02-27T09:40:29.737Z,26.92
2023-02-27T09:41:29.729Z,26.95
2023-02-27T09:42:29.734Z,26.97
2023-02-27T09:43:29.728Z,26.94
2023-02-27T09:44:44.906Z,26.94
2023-02-27T09:45:29.729Z,26.92
2023-02-27T09:46:29.963Z,26.97
2023-02-27T09:47:29.724Z,26.89
2023-02-27T09:48:29.735Z,26.88
2023-02-27T09:49:29.726Z,26.81
2023-02-27T09:50:29.758Z,26.84
2023-02-27T09:51:30.016Z,26.82
2023-02-27T09:52:29.736Z,26.82
2023-02-27T09:53:29.728Z,26.80
2023-02-27T09:54:29.729Z,26.85
2023-02-27T09:55:29.723Z,26.76
2023-02-27T09:56:29.990Z,26.82
2023-02-27T09:57:29.723Z,26.73
2023-02-27T09:58:29.727Z,26.80
2023-02-27T09:59:29.719Z,26.82
2023-02-27T10:00:29.737Z,26.82
2023-02-27T10:01:30.048Z,26.77
2023-02-27T10:02:29.787Z,26.77
2023-02-27T10:03:29.801Z,26.73
2023-02-27T10:04:29.729Z,26.76
2023-02-27T10:05:29.788Z,26.73
2023-02-27T10:06:30.213Z,26.80
2023-02-27T10:07:29.740Z,26.77
2023-02-27T10:08:29.719Z,26.82
2023-02-27T10:09:29.720Z,26.73
2023-02-27T10:10:29.763Z,26.67
2023-02-27T10:11:29.765Z,26.72
2023-02-27T10:12:29.759Z,26.76
2023-02-27T10:13:29.753Z,26.73
2023-02-27T10:14:29.798Z,26.75
2023-02-27T10:15:29.722Z,26.75
2023-02-27T10:16:30.119Z,26.69
2023-02-27T10:17:29.719Z,26.80
2023-02-27T10:18:30.918Z,26.72
2023-02-27T10:19:29.713Z,26.75
2023-02-27T10:20:29.717Z,26.75
2023-02-27T10:21:31.149Z,26.81
2023-02-27T10:22:29.739Z,26.76
2023-02-27T10:23:29.753Z,26.81
2023-02-27T10:24:29.788Z,26.69
2023-02-27T10:25:32.067Z,26.69
2023-02-27T10:26:29.717Z,26.73
2023-02-27T10:27:29.711Z,26.70
2023-02-27T10:28:29.719Z,26.70
2023-02-27T10:29:29.709Z,26.73
2023-02-27T10:30:32.856Z,26.70
2023-02-27T10:31:30.144Z,26.69
2023-02-27T10:32:29.715Z,26.67
2023-02-27T10:33:29.733Z,26.75
2023-02-27T10:34:29.756Z,26.67
2023-02-27T10:35:29.758Z,26.75
2023-02-27T10:36:33.924Z,26.76
2023-02-27T10:37:29.731Z,26.73
2023-02-27T10:38:29.750Z,26.72
2023-02-27T10:39:29.739Z,26.73
2023-02-27T10:40:29.732Z,26.69
2023-02-27T10:41:30.182Z,26.75
2023-02-27T10:42:29.739Z,26.75
2023-02-27T10:43:29.736Z,26.70
2023-02-27T10:44:29.705Z,26.70
2023-02-27T10:45:29.699Z,26.75
2023-02-27T10:46:30.278Z,26.73
2023-02-27T10:47:29.717Z,26.70
2023-02-27T10:48:29.700Z,26.67
2023-02-27T10:49:29.696Z,26.70
2023-02-27T10:50:29.697Z,26.63
2023-02-27T10:51:29.945Z,26.67
2023-02-27T10:52:29.736Z,26.62
2023-02-27T10:53:29.692Z,26.57
2023-02-27T10:54:29.730Z,26.65
2023-02-27T10:55:29.688Z,26.66
2023-02-27T10:56:30.011Z,26.69
2023-02-27T10:57:29.688Z,26.57
2023-02-27T10:58:29.700Z,26.63
2023-02-27T10:59:29.685Z,26.65
2023-02-27T11:00:29.705Z,26.65
2023-02-27T11:01:29.996Z,26.65
2023-02-27T11:02:29.691Z,26.70
2023-02-27T11:03:29.686Z,26.69
2023-02-27T11:04:29.767Z,26.66
2023-02-27T11:05:29.682Z,26.65
2023-02-27T11:06:29.693Z,26.63
2023-02-27T11:07:29.694Z,26.70
2023-02-27T11:08:29.683Z,26.73
2023-02-27T11:09:29.713Z,26.77
2023-02-27T11:10:29.706Z,26.72
2023-02-27T11:11:29.838Z,26.73
2023-02-27T11:12:29.688Z,26.67
2023-02-27T11:13:29.676Z,26.75
2023-02-27T11:14:29.684Z,26.72
2023-02-27T11:15:29.738Z,26.75
2023-02-27T11:16:29.700Z,26.75
2023-02-27T11:17:29.681Z,26.76
2023-02-27T11:18:29.678Z,26.67
2023-02-27T11:19:29.696Z,26.72
2023-02-27T11:20:29.691Z,26.75
2023-02-27T11:21:30.108Z,26.70
2023-02-27T11:22:29.684Z,26.75
2023-02-27T11:23:29.674Z,26.69
2023-02-27T11:24:29.682Z,26.72
2023-02-27T11:25:29.681Z,26.77
2023-02-27T11:26:29.702Z,26.76
2023-02-27T11:27:29.680Z,26.77
2023-02-27T11:28:29.719Z,26.72
2023-02-27T11:29:29.673Z,26.72
2023-02-27T11:30:29.681Z,26.75
2023-02-27T11:31:30.126Z,26.76
2023-02-27T11:32:29.677Z,26.72
2023-02-27T11:33:29.674Z,26.76
2023-02-27T11:34:29.675Z,26.70
2023-02-27T11:35:29.821Z,26.76
2023-02-27T11:36:29.675Z,26.75
2023-02-27T11:37:29.670Z,26.73
2023-02-27T11:38:29.688Z,26.73
2023-02-27T11:39:29.666Z,26.76
2023-02-27T11:40:29.672Z,26.73
2023-02-27T11:41:29.959Z,26.88
2023-02-27T11:42:29.693Z,26.77
2023-02-27T11:43:29.663Z,26.77
2023-02-27T11:44:38.623Z,26.80
2023-02-27T11:46:12.746Z,26.89
2023-02-27T11:46:48.187Z,26.80
2023-02-27T11:47:29.707Z,26.75
2023-02-27T11:48:29.670Z,26.82
2023-02-27T11:49:29.662Z,26.80
2023-02-27T11:50:29.664Z,26.80
2023-02-27T11:51:29.858Z,26.87
2023-02-27T11:52:29.664Z,26.94
2023-02-27T11:53:29.662Z,26.87
2023-02-27T11:54:29.663Z,26.89
2023-02-27T11:55:29.654Z,26.92
2023-02-27T11:56:29.662Z,26.91
2023-02-27T11:57:29.658Z,26.94
2023-02-27T11:58:29.687Z,26.94
2023-02-27T11:59:29.662Z,26.95
2023-02-27T12:00:29.663Z,27.00
2023-02-27T12:01:29.771Z,26.94
2023-02-27T12:02:29.689Z,27.00
2023-02-27T12:03:29.654Z,26.91
2023-02-27T12:04:29.661Z,26.92
2023-02-27T12:05:29.655Z,27.07
2023-02-27T12:06:29.660Z,26.95
2023-02-27T12:07:29.651Z,27.03
2023-02-27T12:08:29.667Z,26.97
2023-02-27T12:09:29.653Z,27.03
2023-02-27T12:10:29.660Z,27.00
2023-02-27T12:11:29.994Z,27.00
2023-02-27T12:12:29.668Z,27.02
2023-02-27T12:13:29.653Z,27.10
2023-02-27T12:14:29.749Z,27.12
2023-02-27T12:15:29.648Z,27.03
2023-02-27T12:16:32.423Z,27.07
2023-02-27T12:17:29.673Z,27.06
2023-02-27T12:18:29.654Z,27.07
2023-02-27T12:19:29.654Z,27.10
2023-02-27T12:20:29.658Z,27.12
2023-02-27T12:21:29.650Z,27.12
2023-02-27T12:22:29.653Z,27.09
2023-02-27T12:23:29.651Z,27.13
2023-02-27T12:24:29.655Z,27.12
2023-02-27T12:25:29.658Z,27.17
2023-02-27T12:26:30.144Z,27.10
2023-02-27T12:27:29.644Z,27.13
2023-02-27T12:28:29.650Z,27.12
2023-02-27T12:29:29.642Z,27.22
2023-02-27T12:30:29.685Z,27.17
2023-02-27T12:31:30.034Z,27.22
2023-02-27T12:32:29.866Z,27.13
2023-02-27T12:33:29.640Z,27.19
2023-02-27T12:34:29.645Z,27.21
2023-02-27T12:35:29.688Z,27.14
2023-02-27T12:36:29.657Z,27.19
2023-02-27T12:37:29.638Z,27.24
2023-02-27T12:38:29.648Z,27.25
2023-02-27T12:39:29.636Z,27.25
2023-02-27T12:40:29.644Z,27.36
2023-02-27T12:41:29.885Z,27.34
2023-02-27T12:42:29.647Z,27.27
2023-02-27T12:43:29.634Z,27.32
2023-02-27T12:44:29.642Z,27.34
2023-02-27T12:45:29.684Z,27.34
2023-02-27T12:46:29.676Z,27.32
2023-02-27T12:47:29.644Z,27.34
2023-02-27T12:48:29.639Z,27.31
2023-02-27T12:49:29.643Z,27.36
2023-02-27T12:50:29.644Z,27.36
2023-02-27T12:51:30.063Z,27.32
2023-02-27T12:52:29.641Z,27.40
2023-02-27T12:53:29.629Z,27.41